Time;durP1;ratioP1;P1;durP2;ratioP2;P2;SDS_P1;SDS_P2;PMS_P1;PMS_P2;Temp;Humidity;BMP_temperature;BMP_pressure;BME280_temperature;BME280_humidity;BME280_pressure;Samples;Min_cycle;Max_cycle;Signal;HPM_P1;HPM_P2
2022/09/05 00:01:19;;;;;;;1.73;0.50;;;;;;;;;;4953028;29;20055;-49
2022/09/05 00:03:49;;;;;;;3.45;0.80;;;;;;;;;;4953322;29;20059;-48
2022/09/05 00:06:17;;;;;;;2.05;0.70;;;;;;;;;;4986753;28;20050;-49
2022/09/05 00:08:50;;;;;;;0.85;0.50;;;;;;;;;;4994217;28;20062;-49
2022/09/05 00:11:23;;;;;;;0.98;0.50;;;;;;;;;;4993959;28;20046;-52
2022/09/05 00:13:56;;;;;;;0.93;0.57;;;;;;;;;;4994435;28;20088;-52
2022/09/05 00:16:33;;;;;;;2.75;1.48;;;;;;;;;;5001053;28;20046;-52
2022/09/05 00:19:06;;;;;;;2.80;1.13;;;;;;;;;;5013640;28;20054;-51
2022/09/05 00:21:41;;;;;;;2.10;0.95;;;;;;;;;;5013392;28;20050;-50
2022/09/05 00:24:17;;;;;;;1.65;0.68;;;;;;;;;;5013276;28;20173;-48
2022/09/05 00:26:52;;;;;;;2.65;0.80;;;;;;;;;;5013689;28;20061;-50
2022/09/05 00:29:28;;;;;;;2.13;0.68;;;;;;;;;;5004614;28;20073;-48
2022/09/05 00:31:55;;;;;;;;;;;;;;;;;;5014084;28;20068;-48
2022/09/05 00:34:38;;;;;;;1.13;0.68;;;;;;;;;;5013177;28;20245;-49
2022/09/05 00:37:08;;;;;;;1.77;0.68;;;;;;;;;;5013610;28;20057;-50
2022/09/05 00:39:36;;;;;;;1.23;0.47;;;;;;;;;;5009218;28;20054;-51
2022/09/05 00:42:06;;;;;;;2.85;0.77;;;;;;;;;;4993822;28;20065;-51
2022/09/05 00:44:35;;;;;;;1.75;0.70;;;;;;;;;;4993639;28;20447;-49
2022/09/05 00:47:06;;;;;;;2.70;0.90;;;;;;;;;;4993533;28;20383;-50
2022/09/05 00:49:39;;;;;;;3.22;1.00;;;;;;;;;;4993762;28;20065;-51
2022/09/05 00:52:23;;;;;;;1.42;0.70;;;;;;;;;;4996971;28;20054;-49
2022/09/05 00:55:02;;;;;;;1.80;0.80;;;;;;;;;;4997755;28;20439;-49
2022/09/05 00:57:48;;;;;;;2.85;1.30;;;;;;;;;;4997766;28;20058;-50
2022/09/05 01:00:16;;;;;;;2.25;1.08;;;;;;;;;;4997711;28;20062;-49
2022/09/05 01:03:08;;;;;;;4.30;1.40;;;;;;;;;;4997684;28;20057;-48
2022/09/05 01:05:40;;;;;;;3.05;1.45;;;;;;;;;;4997607;28;20050;-49
2022/09/05 01:08:19;;;;;;;1.92;1.20;;;;;;;;;;4997229;28;20471;-49
2022/09/05 01:10:50;;;;;;;3.05;1.40;;;;;;;;;;4997660;28;20069;-53
2022/09/05 01:13:22;;;;;;;4.05;1.48;;;;;;;;;;4981315;28;20047;-51
2022/09/05 01:15:54;;;;;;;3.17;1.13;;;;;;;;;;4999484;28;20387;-51
2022/09/05 01:18:34;;;;;;;2.67;1.30;;;;;;;;;;5017204;28;20057;-52
2022/09/05 01:21:09;;;;;;;2.10;1.20;;;;;;;;;;5016899;28;20056;-49
2022/09/05 01:24:00;;;;;;;2.47;1.20;;;;;;;;;;5016435;28;20062;-49
2022/09/05 01:26:54;;;;;;;2.45;1.20;;;;;;;;;;4997222;28;20057;-51
2022/09/05 01:29:27;;;;;;;3.92;1.05;;;;;;;;;;5007950;28;20076;-52
2022/09/05 01:32:08;;;;;;;2.63;1.25;;;;;;;;;;5016669;28;20058;-51
2022/09/05 01:34:41;;;;;;;2.97;1.10;;;;;;;;;;5016646;28;20046;-49
2022/09/05 01:37:13;;;;;;;3.22;1.50;;;;;;;;;;5016730;28;20046;-50
2022/09/05 01:39:42;;;;;;;3.35;1.40;;;;;;;;;;5011575;28;20054;-49
2022/09/05 01:42:20;;;;;;;3.05;1.65;;;;;;;;;;4997053;28;20047;-50
2022/09/05 01:44:53;;;;;;;5.45;1.98;;;;;;;;;;4996584;28;20050;-50
2022/09/05 01:47:28;;;;;;;3.88;1.80;;;;;;;;;;4996726;28;20060;-49
2022/09/05 01:49:58;;;;;;;4.90;1.55;;;;;;;;;;4996882;28;20050;-49
2022/09/05 01:52:31;;;;;;;3.38;1.75;;;;;;;;;;4996420;28;20064;-50
2022/09/05 01:55:08;;;;;;;4.80;1.60;;;;;;;;;;4996893;28;20053;-52
2022/09/05 01:57:40;;;;;;;4.93;1.65;;;;;;;;;;4996812;28;20050;-52
2022/09/05 02:00:12;;;;;;;8.23;1.45;;;;;;;;;;4996622;28;20064;-52
2022/09/05 02:02:47;;;;;;;5.10;2.15;;;;;;;;;;4995729;28;20085;-53
2022/09/05 02:05:31;;;;;;;3.13;1.67;;;;;;;;;;4996559;28;20054;-53
2022/09/05 02:08:08;;;;;;;6.43;1.30;;;;;;;;;;4996201;28;20478;-49
2022/09/05 02:10:42;;;;;;;2.20;0.90;;;;;;;;;;4996268;28;20368;-49
2022/09/05 02:13:17;;;;;;;3.38;1.40;;;;;;;;;;4996051;28;20065;-52
2022/09/05 02:15:47;;;;;;;5.15;1.30;;;;;;;;;;4998042;28;20050;-49
2022/09/05 02:18:15;;;;;;;5.07;1.40;;;;;;;;;;5015905;28;20049;-49
2022/09/05 02:20:45;;;;;;;5.40;1.50;;;;;;;;;;5015937;28;20057;-49
2022/09/05 02:23:14;;;;;;;3.25;1.33;;;;;;;;;;5015415;28;20061;-49
2022/09/05 02:25:46;;;;;;;2.65;1.08;;;;;;;;;;5015573;28;20715;-49
2022/09/05 02:28:14;;;;;;;5.88;1.55;;;;;;;;;;5012621;28;20050;-49
2022/09/05 02:30:43;;;;;;;4.07;1.55;;;;;;;;;;5010556;28;20050;-51
2022/09/05 02:33:14;;;;;;;3.15;1.48;;;;;;;;;;5015518;28;20061;-52
2022/09/05 02:35:44;;;;;;;3.90;1.27;;;;;;;;;;5015736;28;20058;-50
2022/09/05 02:38:15;;;;;;;4.43;1.30;;;;;;;;;;5015398;28;20108;-51
2022/09/05 02:40:45;;;;;;;4.68;1.30;;;;;;;;;;5002153;28;20077;-52
2022/09/05 02:43:17;;;;;;;3.25;1.20;;;;;;;;;;4995532;28;20050;-53
2022/09/05 02:45:53;;;;;;;4.60;1.45;;;;;;;;;;4995520;28;20467;-52
2022/09/05 02:48:25;;;;;;;2.92;1.40;;;;;;;;;;4995695;28;20068;-51
2022/09/05 02:51:04;;;;;;;3.47;0.93;;;;;;;;;;4995368;28;20384;-51
2022/09/05 02:53:32;;;;;;;1.92;0.80;;;;;;;;;;4995139;28;20458;-52
2022/09/05 02:56:15;;;;;;;5.97;1.15;;;;;;;;;;4995342;28;20443;-52
2022/09/05 02:58:58;;;;;;;5.65;1.23;;;;;;;;;;4992346;28;20141;-50
2022/09/05 03:01:31;;;;;;;1.65;0.90;;;;;;;;;;4995392;28;20050;-49
2022/09/05 03:04:03;;;;;;;1.73;1.00;;;;;;;;;;4995515;28;20046;-49
2022/09/05 03:06:34;;;;;;;2.22;0.90;;;;;;;;;;4995342;28;20073;-52
2022/09/05 03:09:14;;;;;;;2.13;0.88;;;;;;;;;;4995260;28;20058;-50
2022/09/05 03:11:56;;;;;;;2.47;0.65;;;;;;;;;;4994892;28;20047;-50
2022/09/05 03:14:41;;;;;;;1.83;0.77;;;;;;;;;;4986032;28;20081;-49
2022/09/05 03:17:27;;;;;;;1.52;0.70;;;;;;;;;;4994554;28;20060;-49
2022/09/05 03:20:36;;;;;;;3.63;0.90;;;;;;;;;;5014049;28;20054;-49
2022/09/05 03:23:23;;;;;;;1.42;0.73;;;;;;;;;;5013439;28;20068;-48
2022/09/05 03:26:08;;;;;;;1.48;0.77;;;;;;;;;;5014349;28;20379;-50
2022/09/05 03:28:53;;;;;;;3.20;1.00;;;;;;;;;;5007930;28;20129;-50
2022/09/05 03:31:35;;;;;;;2.85;1.00;;;;;;;;;;4975057;28;20047;-49
2022/09/05 03:34:21;;;;;;;4.10;1.58;;;;;;;;;;4974229;28;20047;-50
2022/09/05 03:37:07;;;;;;;3.88;1.00;;;;;;;;;;4974681;28;20054;-48
2022/09/05 03:39:48;;;;;;;3.58;0.93;;;;;;;;;;4978064;28;20112;-50
2022/09/05 03:42:33;;;;;;;3.13;1.55;;;;;;;;;;4993873;28;20046;-53
2022/09/05 03:45:11;;;;;;;2.85;1.10;;;;;;;;;;4993499;28;20468;-52
2022/09/05 03:47:55;;;;;;;5.30;1.38;;;;;;;;;;4994180;28;20062;-51
2022/09/05 03:50:25;;;;;;;2.28;0.90;;;;;;;;;;4991506;28;20411;-49
2022/09/05 03:53:13;;;;;;;2.83;1.40;;;;;;;;;;4994276;28;20057;-50
2022/09/05 03:56:05;;;;;;;3.53;1.45;;;;;;;;;;4987961;28;20054;-53
2022/09/05 03:58:41;;;;;;;4.55;1.55;;;;;;;;;;4974011;28;20051;-49
2022/09/05 04:01:11;;;;;;;3.22;1.63;;;;;;;;;;4993668;28;20405;-50
2022/09/05 04:03:42;;;;;;;5.63;1.55;;;;;;;;;;4993887;28;20054;-49
2022/09/05 04:06:12;;;;;;;3.60;1.50;;;;;;;;;;4993871;28;20387;-49
2022/09/05 04:08:44;;;;;;;4.03;1.42;;;;;;;;;;4994180;28;20066;-48
2022/09/05 04:11:14;;;;;;;4.45;1.77;;;;;;;;;;4993872;28;20455;-52
2022/09/05 04:13:47;;;;;;;4.00;1.73;;;;;;;;;;4993934;28;20065;-50
2022/09/05 04:16:17;;;;;;;9.18;1.80;;;;;;;;;;4999454;28;20057;-50
2022/09/05 04:18:46;;;;;;;4.13;1.83;;;;;;;;;;5013722;28;20076;-49
2022/09/05 04:21:16;;;;;;;6.80;2.08;;;;;;;;;;5013661;28;20045;-49
2022/09/05 04:23:48;;;;;;;4.97;1.90;;;;;;;;;;5012959;28;20049;-49
2022/09/05 04:26:27;;;;;;;4.18;1.98;;;;;;;;;;5013017;28;20053;-51
2022/09/05 04:29:02;;;;;;;3.10;1.63;;;;;;;;;;5004603;28;20411;-48
2022/09/05 04:31:37;;;;;;;5.60;1.67;;;;;;;;;;4974311;28;20105;-49
2022/09/05 04:34:08;;;;;;;7.57;1.60;;;;;;;;;;4974245;28;20403;-49
2022/09/05 04:36:35;;;;;;;14.18;2.10;;;;;;;;;;4982844;28;20062;-49
2022/09/05 04:39:06;;;;;;;3.33;1.23;;;;;;;;;;4993457;28;20054;-53
2022/09/05 04:41:33;;;;;;;3.28;1.60;;;;;;;;;;4974407;28;20055;-49
2022/09/05 04:44:03;;;;;;;4.70;1.63;;;;;;;;;;4974153;28;20479;-49
2022/09/05 04:46:31;;;;;;;6.47;1.65;;;;;;;;;;4974260;28;20138;-48
2022/09/05 04:49:00;;;;;;;4.55;1.80;;;;;;;;;;4974642;28;20134;-49
2022/09/05 04:51:42;;;;;;;7.30;1.50;;;;;;;;;;4974210;28;20543;-49
2022/09/05 04:54:20;;;;;;;8.98;2.08;;;;;;;;;;4992727;28;20057;-49
2022/09/05 04:56:50;;;;;;;5.00;2.05;;;;;;;;;;4993850;28;20422;-49
2022/09/05 04:59:21;;;;;;;4.47;1.85;;;;;;;;;;4993259;28;20473;-49
2022/09/05 05:02:06;;;;;;;4.30;1.83;;;;;;;;;;4993691;28;20133;-49
2022/09/05 05:04:34;;;;;;;6.07;2.08;;;;;;;;;;4993721;28;20139;-49
2022/09/05 05:07:05;;;;;;;6.72;2.25;;;;;;;;;;4993504;28;20054;-49
2022/09/05 05:09:36;;;;;;;6.70;2.25;;;;;;;;;;4993486;28;20065;-51
2022/09/05 05:12:08;;;;;;;9.63;2.40;;;;;;;;;;4993628;28;20082;-51
2022/09/05 05:14:42;;;;;;;7.55;2.35;;;;;;;;;;4993535;28;20065;-51
2022/09/05 05:17:13;;;;;;;7.85;2.03;;;;;;;;;;5006532;28;20050;-50
2022/09/05 05:19:44;;;;;;;3.80;1.60;;;;;;;;;;5013413;28;20058;-49
2022/09/05 05:22:13;;;;;;;7.20;2.20;;;;;;;;;;5013019;28;20049;-52
2022/09/05 05:24:43;;;;;;;12.57;3.00;;;;;;;;;;5013178;28;20054;-49
2022/09/05 05:27:12;;;;;;;9.50;1.98;;;;;;;;;;5013039;28;20468;-53
2022/09/05 05:29:46;;;;;;;7.57;2.45;;;;;;;;;;5003764;28;20072;-49
2022/09/05 05:32:30;;;;;;;4.40;1.88;;;;;;;;;;5008668;28;20403;-49
2022/09/05 05:35:00;;;;;;;4.30;1.83;;;;;;;;;;4993439;28;20050;-49
2022/09/05 05:37:31;;;;;;;4.82;1.88;;;;;;;;;;4994111;28;20050;-49
2022/09/05 05:40:05;;;;;;;7.38;2.00;;;;;;;;;;4996508;28;20054;-49
2022/09/05 05:42:33;;;;;;;8.73;1.85;;;;;;;;;;4996865;28;20058;-51
2022/09/05 05:45:02;;;;;;;9.65;2.22;;;;;;;;;;4997094;28;20066;-50
2022/09/05 05:47:31;;;;;;;7.60;2.00;;;;;;;;;;4996801;28;20137;-50
2022/09/05 05:50:02;;;;;;;9.13;2.25;;;;;;;;;;4996957;28;20092;-49
2022/09/05 05:52:45;;;;;;;6.70;2.03;;;;;;;;;;4996369;28;20467;-52
2022/09/05 05:55:23;;;;;;;4.95;1.77;;;;;;;;;;4996758;28;20054;-50
2022/09/05 05:58:14;;;;;;;5.22;2.05;;;;;;;;;;4996263;28;20666;-50
2022/09/05 06:00:53;;;;;;;31.90;3.53;;;;;;;;;;4996484;28;20050;-51
2022/09/05 06:03:37;;;;;;;17.15;3.45;;;;;;;;;;4996542;28;20057;-49
2022/09/05 06:06:11;;;;;;;6.22;1.70;;;;;;;;;;4996551;28;20066;-49
2022/09/05 06:08:50;;;;;;;8.50;1.90;;;;;;;;;;4996435;28;20062;-48
2022/09/05 06:11:33;;;;;;;6.57;2.22;;;;;;;;;;4996044;28;20053;-52
2022/09/05 06:14:18;;;;;;;13.80;2.47;;;;;;;;;;4994196;28;20379;-51
2022/09/05 06:17:05;;;;;;;19.67;3.27;;;;;;;;;;4985904;28;20046;-49
2022/09/05 06:19:54;;;;;;;18.20;3.10;;;;;;;;;;4994443;28;20050;-52
2022/09/05 06:22:41;;;;;;;21.77;3.40;;;;;;;;;;4992032;28;20137;-50
2022/09/05 06:25:41;;;;;;;17.58;3.47;;;;;;;;;;4987453;28;20120;-53
2022/09/05 06:28:14;;;;;;;9.48;2.40;;;;;;;;;;4993923;28;20126;-50
2022/09/05 06:30:43;;;;;;;5.90;2.50;;;;;;;;;;4993395;28;20538;-50
2022/09/05 06:33:15;;;;;;;8.52;2.30;;;;;;;;;;4991566;28;20133;-49
2022/09/05 06:35:56;;;;;;;5.25;2.15;;;;;;;;;;4992665;28;20054;-49
2022/09/05 06:38:30;;;;;;;12.65;2.55;;;;;;;;;;4993447;28;20141;-51
2022/09/05 06:41:03;;;;;;;8.18;2.70;;;;;;;;;;4991804;28;20062;-51
2022/09/05 06:43:39;;;;;;;10.70;2.50;;;;;;;;;;4993000;28;20455;-50
2022/09/05 06:46:14;;;;;;;6.13;2.38;;;;;;;;;;4993016;28;20065;-49
2022/09/05 06:48:46;;;;;;;4.85;1.70;;;;;;;;;;4992755;28;20053;-50
2022/09/05 06:51:38;;;;;;;5.05;2.20;;;;;;;;;;4993021;28;20042;-49
2022/09/05 06:54:15;;;;;;;11.52;2.47;;;;;;;;;;4992819;28;20506;-50
2022/09/05 06:56:58;;;;;;;5.90;1.90;;;;;;;;;;4992143;28;20050;-49
2022/09/05 06:59:41;;;;;;;6.60;2.08;;;;;;;;;;4993292;28;20061;-50
2022/09/05 07:02:13;;;;;;;7.10;1.70;;;;;;;;;;4992754;28;20482;-49
2022/09/05 07:04:42;;;;;;;6.57;2.28;;;;;;;;;;4992862;28;20364;-51
2022/09/05 07:07:13;;;;;;;6.63;2.35;;;;;;;;;;4992939;28;20046;-48
2022/09/05 07:09:48;;;;;;;3.60;1.40;;;;;;;;;;4992967;28;20052;-49
2022/09/05 07:12:17;;;;;;;7.22;2.50;;;;;;;;;;4992820;28;20042;-48
2022/09/05 07:14:51;;;;;;;3.35;1.67;;;;;;;;;;4993682;28;20112;-48
2022/09/05 07:17:19;;;;;;;5.13;1.70;;;;;;;;;;4994058;28;20069;-48
2022/09/05 07:19:51;;;;;;;4.85;1.90;;;;;;;;;;4992045;28;20153;-51
2022/09/05 07:22:26;;;;;;;6.10;2.05;;;;;;;;;;4992169;28;20061;-47
2022/09/05 07:24:53;;;;;;;5.37;1.67;;;;;;;;;;4992385;28;20060;-48
2022/09/05 07:27:27;;;;;;;6.75;1.50;;;;;;;;;;4992967;28;20154;-50
2022/09/05 07:29:55;;;;;;;4.85;1.80;;;;;;;;;;4993228;28;21647;-49
2022/09/05 07:32:23;;;;;;;3.47;1.63;;;;;;;;;;4992259;28;20049;-49
2022/09/05 07:34:51;;;;;;;3.30;1.40;;;;;;;;;;4992414;28;20050;-50
2022/09/05 07:37:19;;;;;;;3.53;1.13;;;;;;;;;;4990536;28;20503;-52
2022/09/05 07:39:49;;;;;;;4.03;1.38;;;;;;;;;;4992498;28;20050;-49
2022/09/05 07:42:18;;;;;;;3.00;1.00;;;;;;;;;;4991145;28;20058;-48
2022/09/05 07:44:48;;;;;;;3.50;1.10;;;;;;;;;;4992220;28;20082;-48
2022/09/05 07:47:19;;;;;;;5.18;1.63;;;;;;;;;;4991782;28;20050;-49
2022/09/05 07:49:46;;;;;;;4.10;1.10;;;;;;;;;;4992156;28;20415;-49
2022/09/05 07:52:16;;;;;;;4.70;1.42;;;;;;;;;;4992559;28;20050;-48
2022/09/05 07:54:44;;;;;;;5.63;1.40;;;;;;;;;;4992403;28;20053;-48
2022/09/05 07:57:13;;;;;;;2.42;1.20;;;;;;;;;;4990858;28;20054;-47
2022/09/05 07:59:40;;;;;;;7.35;1.30;;;;;;;;;;4992073;28;20358;-49
2022/09/05 08:02:08;;;;;;;3.72;1.48;;;;;;;;;;4992464;28;20522;-49
2022/09/05 08:04:35;;;;;;;5.57;1.48;;;;;;;;;;4992594;28;20058;-49
2022/09/05 08:07:02;;;;;;;3.35;1.60;;;;;;;;;;4992408;28;20046;-50
2022/09/05 08:09:31;;;;;;;8.02;1.95;;;;;;;;;;4992173;28;20045;-49
2022/09/05 08:12:00;;;;;;;5.07;1.73;;;;;;;;;;4991406;28;20061;-50
2022/09/05 08:14:33;;;;;;;6.85;1.73;;;;;;;;;;4992128;28;20049;-49
2022/09/05 08:17:00;;;;;;;5.03;1.83;;;;;;;;;;4991161;28;20046;-50
2022/09/05 08:19:40;;;;;;;5.40;1.50;;;;;;;;;;4990819;28;20061;-51
2022/09/05 08:22:07;;;;;;;4.82;1.55;;;;;;;;;;4991061;28;20058;-52
2022/09/05 08:24:38;;;;;;;3.83;1.60;;;;;;;;;;4991301;28;20089;-53
2022/09/05 08:27:07;;;;;;;3.92;1.98;;;;;;;;;;4992250;28;20368;-51
2022/09/05 08:29:35;;;;;;;3.97;1.50;;;;;;;;;;4993419;28;20175;-52
2022/09/05 08:32:07;;;;;;;4.40;1.50;;;;;;;;;;4991459;28;20058;-53
2022/09/05 08:34:36;;;;;;;3.35;1.77;;;;;;;;;;4991482;28;20050;-51
2022/09/05 08:37:04;;;;;;;6.22;1.63;;;;;;;;;;4991598;28;20081;-54
2022/09/05 08:39:31;;;;;;;2.95;1.48;;;;;;;;;;4991777;28;20085;-51
2022/09/05 08:42:09;;;;;;;3.13;1.48;;;;;;;;;;4991650;28;20058;-51
2022/09/05 08:44:37;;;;;;;5.88;1.52;;;;;;;;;;4991206;28;20046;-51
2022/09/05 08:47:10;;;;;;;5.50;1.33;;;;;;;;;;4991680;28;20049;-50
2022/09/05 08:49:48;;;;;;;5.57;1.63;;;;;;;;;;4991296;28;20065;-52
2022/09/05 08:52:21;;;;;;;2.67;0.90;;;;;;;;;;4991571;28;20125;-50
2022/09/05 08:54:56;;;;;;;1.50;0.85;;;;;;;;;;4991025;28;20050;-54
2022/09/05 08:57:42;;;;;;;2.17;0.80;;;;;;;;;;4990022;28;20050;-50
2022/09/05 09:00:10;;;;;;;18.10;2.22;;;;;;;;;;4991058;28;20105;-50
2022/09/05 09:02:52;;;;;;;3.17;0.63;;;;;;;;;;4991452;28;20057;-50
2022/09/05 09:05:23;;;;;;;1.00;0.45;;;;;;;;;;4990017;28;20050;-50
2022/09/05 09:07:53;;;;;;;4.00;0.60;;;;;;;;;;4991573;28;20050;-51
2022/09/05 09:10:27;;;;;;;1.25;0.47;;;;;;;;;;4991851;28;20072;-49
2022/09/05 09:13:05;;;;;;;2.22;0.40;;;;;;;;;;4993814;28;20116;-49
2022/09/05 09:15:34;;;;;;;1.13;0.55;;;;;;;;;;4995344;28;20050;-49
2022/09/05 09:18:08;;;;;;;1.83;0.63;;;;;;;;;;4995773;28;20050;-49
2022/09/05 09:20:39;;;;;;;9.65;1.13;;;;;;;;;;4994067;28;20050;-50
2022/09/05 09:23:08;;;;;;;2.60;0.60;;;;;;;;;;4995934;28;21294;-49
2022/09/05 09:25:37;;;;;;;0.60;0.35;;;;;;;;;;4994444;28;20649;-49
2022/09/05 09:28:19;;;;;;;2.78;0.57;;;;;;;;;;4994316;28;20081;-49
2022/09/05 09:30:54;;;;;;;24.98;2.63;;;;;;;;;;4991020;28;20058;-48
2022/09/05 09:33:25;;;;;;;2.88;0.60;;;;;;;;;;4996025;28;20060;-49
2022/09/05 09:35:54;;;;;;;2.80;0.50;;;;;;;;;;4994663;28;20060;-51
2022/09/05 09:38:26;;;;;;;3.80;0.55;;;;;;;;;;4994521;28;20064;-48
2022/09/05 09:41:22;;;;;;;19.98;1.92;;;;;;;;;;4993291;28;20108;-50
2022/09/05 09:43:51;;;;;;;;;;;;;;;;;;4994524;28;20061;-50
2022/09/05 09:46:26;;;;;;;1.55;0.43;;;;;;;;;;4994628;28;19926;-49
2022/09/05 09:48:58;;;;;;;1.95;0.40;;;;;;;;;;4992222;28;20065;-50
2022/09/05 09:51:36;;;;;;;2.90;0.38;;;;;;;;;;4994002;28;20144;-50
2022/09/05 09:54:20;;;;;;;0.95;0.35;;;;;;;;;;4992243;28;20085;-50
2022/09/05 09:56:55;;;;;;;0.77;0.40;;;;;;;;;;4994099;28;20470;-50
2022/09/05 09:59:36;;;;;;;4.20;0.40;;;;;;;;;;4994084;28;20056;-52
2022/09/05 10:02:19;;;;;;;10.85;0.65;;;;;;;;;;4984962;28;20058;-49
2022/09/05 10:05:06;;;;;;;7.03;0.43;;;;;;;;;;4993318;28;20046;-49
2022/09/05 10:07:43;;;;;;;1.20;0.30;;;;;;;;;;4987198;28;20073;-49
2022/09/05 10:10:28;;;;;;;0.98;0.40;;;;;;;;;;4993359;28;20068;-49
2022/09/05 10:13:12;;;;;;;0.45;0.20;;;;;;;;;;4992230;28;20149;-49
2022/09/05 10:15:46;;;;;;;0.80;0.20;;;;;;;;;;4994160;28;20069;-50
2022/09/05 10:18:24;;;;;;;0.80;0.55;;;;;;;;;;4992414;28;20058;-50
2022/09/05 10:21:04;;;;;;;1.25;0.40;;;;;;;;;;4992118;28;20059;-50
2022/09/05 10:23:37;;;;;;;1.08;0.30;;;;;;;;;;4992716;28;20140;-50
2022/09/05 10:26:24;;;;;;;0.38;0.20;;;;;;;;;;4992203;28;20054;-50
2022/09/05 10:28:59;;;;;;;0.47;0.20;;;;;;;;;;4991764;28;20054;-50
2022/09/05 10:31:25;;;;;;;;;;;;;;;;;;4993744;28;20054;-51
2022/09/05 10:33:57;;;;;;;0.57;0.20;;;;;;;;;;4992695;28;19971;-49
2022/09/05 10:36:26;;;;;;;0.20;0.10;;;;;;;;;;4993421;28;20054;-53
2022/09/05 10:39:37;;;;;;;10.63;0.88;;;;;;;;;;4995880;28;20153;-48
2022/09/05 10:42:07;;;;;;;1.17;0.50;;;;;;;;;;4985665;28;20054;-47
2022/09/05 10:44:37;;;;;;;0.47;0.25;;;;;;;;;;4993053;28;20065;-48
2022/09/05 10:47:09;;;;;;;1.80;0.38;;;;;;;;;;4993393;28;20046;-47
2022/09/05 10:49:41;;;;;;;0.45;0.30;;;;;;;;;;4992849;28;20086;-49
2022/09/05 10:52:10;;;;;;;1.33;0.30;;;;;;;;;;4992768;28;20056;-48
2022/09/05 10:54:39;;;;;;;0.77;0.30;;;;;;;;;;4993230;28;20051;-49
2022/09/05 10:57:12;;;;;;;1.27;0.50;;;;;;;;;;4993009;28;20054;-48
2022/09/05 10:59:50;;;;;;;6.45;0.65;;;;;;;;;;4992534;28;20467;-48
2022/09/05 11:02:19;;;;;;;2.88;0.50;;;;;;;;;;4992134;28;20065;-50
2022/09/05 11:04:50;;;;;;;1.98;0.30;;;;;;;;;;4992641;28;20059;-50
2022/09/05 11:07:21;;;;;;;1.00;0.20;;;;;;;;;;4992781;28;20050;-50
2022/09/05 11:09:55;;;;;;;0.60;0.30;;;;;;;;;;4990535;28;20061;-48
2022/09/05 11:12:36;;;;;;;1.08;0.35;;;;;;;;;;4989435;28;20046;-48
2022/09/05 11:15:06;;;;;;;0.93;0.30;;;;;;;;;;4987784;28;20048;-48
2022/09/05 11:17:39;;;;;;;1.92;0.35;;;;;;;;;;4991551;28;20046;-46
2022/09/05 11:20:19;;;;;;;1.23;0.30;;;;;;;;;;4991365;28;20057;-47
2022/09/05 11:22:47;;;;;;;0.95;0.20;;;;;;;;;;4992539;28;20076;-46
2022/09/05 11:25:17;;;;;;;0.65;0.30;;;;;;;;;;4992349;28;20046;-48
2022/09/05 11:27:45;;;;;;;0.47;0.22;;;;;;;;;;4990596;28;20467;-48
2022/09/05 11:30:14;;;;;;;8.43;0.85;;;;;;;;;;4993440;28;20062;-48
2022/09/05 11:32:59;;;;;;;0.50;0.28;;;;;;;;;;4991069;28;20109;-48
2022/09/05 11:35:27;;;;;;;0.52;0.22;;;;;;;;;;4989361;28;20038;-48
2022/09/05 11:38:06;;;;;;;0.75;0.30;;;;;;;;;;4993073;28;20066;-50
2022/09/05 11:40:37;;;;;;;0.75;0.40;;;;;;;;;;4990254;28;20065;-49
2022/09/05 11:43:24;;;;;;;0.57;0.20;;;;;;;;;;4992815;28;20057;-48
2022/09/05 11:46:04;;;;;;;1.10;0.30;;;;;;;;;;4958568;28;20053;-49
2022/09/05 11:48:49;;;;;;;0.88;0.32;;;;;;;;;;4992284;28;20149;-48
2022/09/05 11:51:30;;;;;;;0.50;0.20;;;;;;;;;;4990964;28;20794;-48
2022/09/05 11:54:04;;;;;;;1.30;0.30;;;;;;;;;;4975510;28;20050;-49
2022/09/05 11:56:49;;;;;;;1.38;0.45;;;;;;;;;;4992381;28;20051;-49
2022/09/05 11:59:33;;;;;;;0.32;0.20;;;;;;;;;;4992038;28;20061;-49
2022/09/05 12:02:06;;;;;;;0.22;0.20;;;;;;;;;;4952751;28;20070;-52
2022/09/05 12:04:43;;;;;;;0.75;0.25;;;;;;;;;;4992520;28;20072;-54
2022/09/05 12:07:14;;;;;;;1.20;0.30;;;;;;;;;;4989954;28;20467;-49
2022/09/05 12:09:51;;;;;;;0.45;0.20;;;;;;;;;;4990637;28;20062;-50
2022/09/05 12:12:23;;;;;;;2.28;0.20;;;;;;;;;;4991879;28;20126;-50
2022/09/05 12:14:59;;;;;;;3.20;0.35;;;;;;;;;;4991087;28;20112;-51
2022/09/05 12:17:30;;;;;;;4.57;0.32;;;;;;;;;;4992284;28;20058;-50
2022/09/05 12:20:00;;;;;;;2.05;0.40;;;;;;;;;;4991964;28;20058;-50
2022/09/05 12:22:30;;;;;;;1.92;0.30;;;;;;;;;;4991554;28;20466;-49
2022/09/05 12:25:07;;;;;;;0.52;0.30;;;;;;;;;;4989964;28;20054;-49
2022/09/05 12:27:35;;;;;;;1.77;0.30;;;;;;;;;;4991978;28;20057;-48
2022/09/05 12:30:04;;;;;;;1.23;0.22;;;;;;;;;;4991395;28;20054;-49
2022/09/05 12:32:32;;;;;;;1.02;0.50;;;;;;;;;;4991932;28;20062;-50
2022/09/05 12:35:01;;;;;;;6.45;0.43;;;;;;;;;;4991952;28;20105;-50
2022/09/05 12:37:30;;;;;;;2.85;0.50;;;;;;;;;;4991827;28;20054;-49
2022/09/05 12:39:58;;;;;;;0.68;0.40;;;;;;;;;;4989095;28;20522;-48
2022/09/05 12:42:29;;;;;;;1.23;0.20;;;;;;;;;;4991216;28;20056;-49
2022/09/05 12:45:08;;;;;;;0.80;0.20;;;;;;;;;;4989111;28;20049;-49
2022/09/05 12:47:48;;;;;;;0.63;0.20;;;;;;;;;;4994072;28;20093;-50
2022/09/05 12:50:16;;;;;;;1.52;0.10;;;;;;;;;;4995680;28;20054;-50
2022/09/05 12:52:45;;;;;;;1.17;0.30;;;;;;;;;;4996069;28;20085;-47
2022/09/05 12:55:16;;;;;;;0.57;0.20;;;;;;;;;;4995903;28;20136;-51
2022/09/05 12:57:44;;;;;;;1.00;0.30;;;;;;;;;;4995267;28;20054;-49
2022/09/05 13:00:12;;;;;;;1.48;0.32;;;;;;;;;;4991382;28;20085;-52
2022/09/05 13:02:44;;;;;;;12.40;0.85;;;;;;;;;;4994908;28;20054;-48
2022/09/05 13:05:13;;;;;;;0.50;0.20;;;;;;;;;;4995484;28;20140;-49
2022/09/05 13:07:42;;;;;;;0.60;0.20;;;;;;;;;;4995208;28;20070;-48
2022/09/05 13:10:13;;;;;;;3.03;0.75;;;;;;;;;;4995062;28;20470;-49
2022/09/05 13:12:46;;;;;;;0.65;0.32;;;;;;;;;;4995098;28;20054;-53
2022/09/05 13:15:18;;;;;;;0.60;0.30;;;;;;;;;;4995060;28;20046;-50
2022/09/05 13:17:49;;;;;;;0.20;0.10;;;;;;;;;;4994595;28;20050;-53
2022/09/05 13:20:17;;;;;;;0.63;0.20;;;;;;;;;;4995095;28;20058;-50
2022/09/05 13:22:45;;;;;;;0.65;0.30;;;;;;;;;;4995367;28;20104;-50
2022/09/05 13:25:15;;;;;;;0.40;0.30;;;;;;;;;;4995241;28;20104;-51
2022/09/05 13:27:45;;;;;;;0.22;0.20;;;;;;;;;;4995390;28;20054;-50
2022/09/05 13:30:12;;;;;;;0.60;0.40;;;;;;;;;;4994836;28;20073;-51
2022/09/05 13:32:42;;;;;;;1.50;0.30;;;;;;;;;;4994187;28;20104;-49
2022/09/05 13:35:11;;;;;;;1.63;0.22;;;;;;;;;;4995004;28;20117;-49
2022/09/05 13:37:41;;;;;;;3.88;0.63;;;;;;;;;;4991916;28;20085;-53
2022/09/05 13:40:09;;;;;;;0.60;0.30;;;;;;;;;;4994462;28;20058;-54
2022/09/05 13:42:38;;;;;;;1.58;0.30;;;;;;;;;;4994568;28;20731;-50
2022/09/05 13:45:07;;;;;;;0.43;0.20;;;;;;;;;;4995077;28;20050;-49
2022/09/05 13:47:56;;;;;;;1.75;0.30;;;;;;;;;;4996816;28;20082;-47
2022/09/05 13:50:25;;;;;;;1.42;0.30;;;;;;;;;;4994731;28;20133;-46
2022/09/05 13:52:54;;;;;;;6.57;0.50;;;;;;;;;;4993507;28;20046;-47
2022/09/05 13:55:22;;;;;;;1.40;0.32;;;;;;;;;;4992628;28;20454;-49
2022/09/05 13:57:51;;;;;;;1.60;0.35;;;;;;;;;;4993839;28;20066;-48
2022/09/05 14:00:22;;;;;;;5.18;0.50;;;;;;;;;;4993939;28;20054;-49
2022/09/05 14:03:02;;;;;;;12.38;1.67;;;;;;;;;;4992169;28;20407;-49
2022/09/05 14:05:30;;;;;;;1.98;0.40;;;;;;;;;;4993135;28;20050;-49
2022/09/05 14:08:15;;;;;;;2.47;0.40;;;;;;;;;;4991679;28;20455;-48
2022/09/05 14:10:58;;;;;;;1.17;0.40;;;;;;;;;;4992288;28;20412;-48
2022/09/05 14:13:26;;;;;;;9.27;0.75;;;;;;;;;;4991738;28;20058;-48
2022/09/05 14:15:55;;;;;;;7.88;0.50;;;;;;;;;;4993922;28;20115;-50
2022/09/05 14:18:23;;;;;;;1.02;0.30;;;;;;;;;;4993335;28;20057;-49
2022/09/05 14:23:40;;;;;;;0.30;0.10;;;;;;;;;;4993988;28;20065;-49
2022/09/05 14:26:11;;;;;;;1.25;0.13;;;;;;;;;;4995069;28;20042;-48
2022/09/05 14:28:40;;;;;;;1.83;0.35;;;;;;;;;;4993810;28;20050;-48
2022/09/05 14:31:09;;;;;;;0.70;0.28;;;;;;;;;;4993974;28;20056;-48
2022/09/05 14:33:40;;;;;;;15.68;1.00;;;;;;;;;;4994515;28;20046;-48
2022/09/05 14:36:10;;;;;;;1.23;0.40;;;;;;;;;;4993783;28;20105;-48
2022/09/05 14:38:49;;;;;;;0.40;0.20;;;;;;;;;;4993127;28;20172;-48
2022/09/05 14:41:29;;;;;;;0.90;0.20;;;;;;;;;;4993477;28;20047;-48
2022/09/05 14:44:14;;;;;;;0.40;0.20;;;;;;;;;;4993122;28;20442;-49
2022/09/05 14:47:10;;;;;;;1.80;0.30;;;;;;;;;;4992643;28;20046;-50
2022/09/05 14:49:48;;;;;;;2.38;0.30;;;;;;;;;;4914190;29;20094;-48
2022/09/05 14:52:16;;;;;;;1.98;0.40;;;;;;;;;;4978063;28;20561;-49
2022/09/05 14:54:42;;;;;;;0.68;0.20;;;;;;;;;;4993048;28;20050;-49
2022/09/05 14:57:13;;;;;;;0.32;0.20;;;;;;;;;;4993330;28;20140;-48
2022/09/05 14:59:41;;;;;;;0.32;0.22;;;;;;;;;;4992583;28;20058;-48
2022/09/05 15:02:17;;;;;;;0.50;0.28;;;;;;;;;;4989719;28;20080;-48
2022/09/05 15:04:46;;;;;;;1.50;0.22;;;;;;;;;;4994418;28;20138;-49
2022/09/05 15:07:18;;;;;;;5.05;0.50;;;;;;;;;;4995448;28;20086;-49
2022/09/05 15:09:44;;;;;;;2.00;0.40;;;;;;;;;;4994900;28;20482;-52
2022/09/05 15:12:15;;;;;;;0.30;0.20;;;;;;;;;;4995202;28;20519;-49
2022/09/05 15:14:43;;;;;;;0.38;0.20;;;;;;;;;;4995532;28;20058;-51
2022/09/05 15:17:10;;;;;;;3.50;0.73;;;;;;;;;;4994786;28;20062;-49
2022/09/05 15:19:49;;;;;;;0.60;0.20;;;;;;;;;;4995177;28;20050;-52
2022/09/05 15:22:23;;;;;;;1.55;0.30;;;;;;;;;;4995216;28;20061;-49
2022/09/05 15:24:59;;;;;;;1.88;0.38;;;;;;;;;;4981717;28;20060;-49
2022/09/05 15:27:27;;;;;;;2.65;0.32;;;;;;;;;;4994562;28;20057;-49